Time;durP1;ratioP1;P1;durP2;ratioP2;P2;SDS_P1;SDS_P2;PMS_P1;PMS_P2;Temp;Humidity;BMP_temperature;BMP_pressure;BME280_temperature;BME280_humidity;BME280_pressure;Samples;Min_cycle;Max_cycle;Signal;HPM_P1;HPM_P2
2024/04/11 00:02:09;;;;;;;3.22;0.73;;;;;;;18.78;33.87;102720.88;5387410;26;20000;-65
2024/04/11 00:04:35;;;;;;;2.13;0.57;;;;;;;18.76;33.85;102714.69;5407789;26;20343;-65
2024/04/11 00:07:00;;;;;;;6.20;0.98;;;;;;;18.74;34.26;102722.13;5387453;26;20011;-65
2024/04/11 00:09:27;;;;;;;3.95;0.80;;;;;;;18.74;34.09;102726.69;5418316;26;20035;-66
2024/04/11 00:11:52;;;;;;;3.55;0.80;;;;;;;18.71;34.01;102719.66;5358344;26;20003;-65
2024/04/11 00:14:18;;;;;;;4.63;0.90;;;;;;;18.70;34.06;102723.41;5387020;26;20015;-65
2024/04/11 00:16:43;;;;;;;1.33;0.60;;;;;;;18.68;34.43;102725.38;5416843;26;20022;-65
2024/04/11 00:19:09;;;;;;;2.90;0.70;;;;;;;18.69;34.59;102728.94;5387176;26;20370;-66
2024/04/11 00:21:34;;;;;;;5.80;0.77;;;;;;;18.70;33.82;102728.84;5441499;26;20011;-65
2024/04/11 00:24:00;;;;;;;2.40;0.60;;;;;;;18.71;33.97;102732.38;5406984;26;20447;-65
2024/04/11 00:26:26;;;;;;;3.72;1.38;;;;;;;18.68;33.84;102724.53;5387208;26;20000;-66
2024/04/11 00:28:53;;;;;;;2.75;0.32;;;;;;;18.69;34.52;102729.81;5387288;26;20010;-65
2024/04/11 00:31:18;;;;;;;4.18;0.70;;;;;;;18.68;33.73;102730.81;5387271;26;20024;-65
2024/04/11 00:33:54;;;;;;;3.55;0.80;;;;;;;18.66;34.00;102730.09;5368945;26;20455;-65
2024/04/11 00:36:24;;;;;;;2.70;0.70;;;;;;;18.67;34.51;102737.25;5390220;26;20012;-65
2024/04/11 00:38:51;;;;;;;2.42;0.95;;;;;;;18.64;34.33;102731.22;5357844;26;20011;-66
2024/04/11 00:41:17;;;;;;;4.63;0.75;;;;;;;18.64;34.55;102736.66;5386919;26;20000;-65
2024/04/11 00:43:42;;;;;;;4.97;1.25;;;;;;;18.61;34.07;102732.34;5387621;26;20064;-64
2024/04/11 00:46:09;;;;;;;2.30;0.63;;;;;;;18.61;33.92;102726.91;5387129;26;20015;-65
2024/04/11 00:48:36;;;;;;;14.05;1.10;;;;;;;18.58;34.27;102716.31;5387536;26;20004;-67
2024/04/11 00:51:04;;;;;;;3.42;0.55;;;;;;;18.55;34.26;102716.59;5441226;26;19999;-66
2024/04/11 00:53:30;;;;;;;2.17;0.45;;;;;;;18.58;34.44;102724.47;5422456;26;20075;-67
2024/04/11 00:55:56;;;;;;;3.20;0.70;;;;;;;18.57;34.08;102718.19;5422554;26;20013;-67
2024/04/11 00:58:22;;;;;;;1.38;0.50;;;;;;;18.54;34.11;102710.31;5453469;26;19999;-66
2024/04/11 01:00:48;;;;;;;2.58;0.73;;;;;;;18.53;34.17;102703.19;5422357;26;20039;-67
2024/04/11 01:03:15;;;;;;;2.50;0.60;;;;;;;18.51;34.23;102705.13;5422224;26;20423;-66
2024/04/11 01:05:41;;;;;;;5.00;1.10;;;;;;;18.50;33.91;102703.44;5422877;26;19999;-66
2024/04/11 01:08:07;;;;;;;3.05;0.70;;;;;;;18.47;34.53;102709.09;5422457;26;20010;-66
2024/04/11 01:10:37;;;;;;;1.95;0.63;;;;;;;18.48;34.64;102707.28;5452122;26;19999;-66
2024/04/11 01:13:05;;;;;;;3.58;1.33;;;;;;;18.49;34.16;102707.13;5452475;26;20071;-66
2024/04/11 01:15:34;;;;;;;0.90;0.57;;;;;;;18.51;34.69;102704.28;5416215;26;20013;-67
2024/04/11 01:18:01;;;;;;;10.88;1.25;;;;;;;18.52;34.30;102711.44;5386513;26;20140;-66
2024/04/11 01:20:27;;;;;;;7.32;1.00;;;;;;;18.50;34.33;102705.28;5392001;26;20007;-66
2024/04/11 01:22:52;;;;;;;3.60;0.70;;;;;;;18.53;34.78;102718.59;5392042;26;19994;-66
2024/04/11 01:25:19;;;;;;;2.88;0.50;;;;;;;18.51;34.57;102715.13;5421811;26;19999;-66
2024/04/11 01:27:44;;;;;;;6.57;0.80;;;;;;;18.52;34.32;102719.56;5391317;26;19994;-66
2024/04/11 01:30:11;;;;;;;4.18;1.02;;;;;;;18.50;34.12;102710.72;5421763;26;20003;-66
2024/04/11 01:32:37;;;;;;;2.95;0.70;;;;;;;18.54;34.29;102712.16;5392109;26;20010;-66
2024/04/11 01:35:04;;;;;;;2.85;0.60;;;;;;;18.53;34.43;102714.03;5392024;26;20006;-66
2024/04/11 01:37:29;;;;;;;4.47;0.70;;;;;;;18.56;34.05;102718.31;5421665;26;20006;-66
2024/04/11 01:39:56;;;;;;;1.27;0.65;;;;;;;18.54;34.96;102714.88;5421787;26;19995;-67
2024/04/11 01:42:21;;;;;;;3.22;0.80;;;;;;;18.57;34.15;102720.03;5421570;26;20014;-69
2024/04/11 01:44:47;;;;;;;1.58;0.60;;;;;;;18.56;34.82;102719.16;5421537;26;20462;-69
2024/04/11 01:47:15;;;;;;;4.70;0.73;;;;;;;18.56;34.20;102715.63;5421297;26;19995;-69
2024/04/11 01:49:42;;;;;;;7.50;0.75;;;;;;;18.51;34.90;102712.41;5422245;26;20039;-69
2024/04/11 01:52:11;;;;;;;3.45;0.73;;;;;;;18.47;34.19;102719.97;5421666;26;20018;-69
2024/04/11 01:54:37;;;;;;;1.65;0.70;;;;;;;18.42;34.88;102719.50;5422130;26;19999;-69
2024/04/11 01:57:03;;;;;;;1.15;1.05;;;;;;;18.44;34.88;102719.34;5452645;26;19998;-69
2024/04/11 01:59:28;;;;;;;2.78;0.65;;;;;;;18.43;34.80;102712.19;5391677;26;20013;-69
2024/04/11 02:01:54;;;;;;;2.40;0.70;;;;;;;18.39;34.87;102708.91;5453057;26;20003;-69
2024/04/11 02:04:19;;;;;;;5.10;1.50;;;;;;;18.38;34.96;102709.03;5451544;26;20080;-69
2024/04/11 02:06:44;;;;;;;7.35;0.55;;;;;;;18.39;34.61;102711.63;5421026;26;19999;-69
2024/04/11 02:09:11;;;;;;;7.53;0.90;;;;;;;18.38;35.18;102700.91;5421111;26;19998;-69
2024/04/11 02:11:38;;;;;;;2.80;0.47;;;;;;;18.41;35.26;102703.34;5421630;26;20467;-69
2024/04/11 02:14:04;;;;;;;4.18;0.80;;;;;;;18.40;35.15;102704.31;5391323;26;20002;-69
2024/04/11 02:16:34;;;;;;;3.80;0.57;;;;;;;18.40;35.10;102698.91;5420986;26;20071;-69
2024/04/11 02:19:06;;;;;;;2.15;1.05;;;;;;;18.39;34.66;102694.47;5421707;26;20323;-69
2024/04/11 02:21:35;;;;;;;5.07;0.90;;;;;;;18.38;34.89;102690.03;5452188;26;20075;-69
2024/04/11 02:24:01;;;;;;;8.60;1.17;;;;;;;18.38;34.67;102681.91;5362020;26;19997;-70
2024/04/11 02:26:27;;;;;;;5.72;0.70;;;;;;;18.39;35.23;102681.78;5420740;26;20010;-69
2024/04/11 02:28:52;;;;;;;3.17;0.50;;;;;;;18.37;35.17;102674.78;5420595;26;19998;-69
2024/04/11 02:31:18;;;;;;;3.50;0.63;;;;;;;18.39;34.82;102680.91;5452977;26;20334;-69
2024/04/11 02:33:43;;;;;;;5.57;0.85;;;;;;;18.38;34.95;102676.47;5423917;26;20005;-70
2024/04/11 02:36:09;;;;;;;4.72;0.80;;;;;;;18.40;35.07;102691.63;5424464;26;20005;-70
2024/04/11 02:38:34;;;;;;;4.70;0.73;;;;;;;18.43;34.87;102695.91;5423782;26;20015;-70
2024/04/11 02:41:00;;;;;;;2.60;0.82;;;;;;;18.46;34.90;102703.78;5425111;26;20015;-70
2024/04/11 02:43:26;;;;;;;2.42;0.80;;;;;;;18.48;34.84;102701.84;5424508;26;20446;-69
2024/04/11 02:45:53;;;;;;;2.17;0.63;;;;;;;18.51;34.71;102699.72;5456153;26;20007;-69
2024/04/11 02:48:18;;;;;;;3.40;1.13;;;;;;;18.56;35.35;102702.03;5425213;26;19999;-69
2024/04/11 02:50:44;;;;;;;5.32;0.85;;;;;;;18.58;35.12;102700.03;5424800;26;20479;-66
2024/04/11 02:53:09;;;;;;;3.65;0.60;;;;;;;18.59;35.37;102708.03;5424591;26;20003;-66
2024/04/11 02:55:35;;;;;;;4.60;1.48;;;;;;;18.62;35.35;102706.06;5424448;26;20022;-66
2024/04/11 02:58:01;;;;;;;6.47;1.55;;;;;;;18.63;34.90;102722.22;5453772;26;20450;-67
2024/04/11 03:00:27;;;;;;;2.97;0.90;;;;;;;18.59;35.08;102713.47;5394585;26;19999;-66
2024/04/11 03:02:52;;;;;;;7.05;0.80;;;;;;;18.63;35.31;102719.50;5455669;26;19998;-66
2024/04/11 03:05:19;;;;;;;5.10;0.80;;;;;;;18.61;35.26;102710.63;5424006;26;20003;-66
2024/04/11 03:07:45;;;;;;;3.75;0.70;;;;;;;18.63;35.31;102721.34;5423893;26;20044;-66
2024/04/11 03:10:11;;;;;;;3.33;0.70;;;;;;;18.64;35.38;102715.78;5455320;26;20013;-66
2024/04/11 03:12:36;;;;;;;2.67;0.80;;;;;;;18.63;35.02;102711.34;5454071;26;20353;-66
2024/04/11 03:15:08;;;;;;;5.82;1.15;;;;;;;18.63;35.40;102707.75;5365137;26;19995;-66
2024/04/11 03:17:35;;;;;;;1.95;0.90;;;;;;;18.63;35.37;102702.34;5425952;26;20458;-66
2024/04/11 03:20:00;;;;;;;2.90;0.82;;;;;;;18.59;35.09;102697.19;5453995;26;19998;-66
2024/04/11 03:22:26;;;;;;;5.00;0.98;;;;;;;18.57;35.13;102690.16;5423782;26;19995;-66
2024/04/11 03:24:51;;;;;;;4.13;0.90;;;;;;;18.52;35.24;102674.31;5394179;26;20031;-66
2024/04/11 03:27:17;;;;;;;4.00;0.88;;;;;;;18.54;35.35;102687.72;5423970;26;20011;-66
2024/04/11 03:29:45;;;;;;;9.98;0.93;;;;;;;18.54;35.01;102687.72;5424203;26;20003;-66
2024/04/11 03:32:11;;;;;;;3.15;0.57;;;;;;;18.54;35.64;102683.16;5424777;26;20002;-66
2024/04/11 03:34:38;;;;;;;2.53;0.90;;;;;;;18.55;35.71;102681.31;5423648;26;20075;-66
2024/04/11 03:37:05;;;;;;;5.00;0.60;;;;;;;18.59;35.35;102680.06;5394200;26;20515;-66
2024/04/11 03:39:30;;;;;;;3.22;0.52;;;;;;;18.57;35.26;102672.03;5423677;26;20003;-66
2024/04/11 03:41:57;;;;;;;2.72;1.05;;;;;;;18.57;35.61;102663.03;5423310;26;20034;-66
2024/04/11 03:44:22;;;;;;;3.45;0.70;;;;;;;18.58;35.30;102665.63;5393837;26;19999;-66
2024/04/11 03:46:47;;;;;;;8.65;1.25;;;;;;;18.58;35.54;102668.34;5364665;26;19998;-66
2024/04/11 03:49:13;;;;;;;1.50;0.50;;;;;;;18.57;35.70;102665.75;5423328;26;20427;-66
2024/04/11 03:51:41;;;;;;;2.67;0.88;;;;;;;18.58;35.39;102667.47;5422864;26;19995;-66
2024/04/11 03:54:09;;;;;;;2.42;0.63;;;;;;;18.60;35.51;102681.75;5424043;26;20462;-66
2024/04/11 03:56:34;;;;;;;1.65;0.93;;;;;;;18.62;35.59;102679.75;5387489;26;20076;-66
2024/04/11 03:59:01;;;;;;;4.13;0.70;;;;;;;18.63;34.98;102670.63;5417300;26;20016;-66
2024/04/11 04:01:27;;;;;;;5.95;1.10;;;;;;;18.66;35.44;102664.94;5417008;26;20325;-66
2024/04/11 04:03:56;;;;;;;1.35;0.50;;;;;;;18.67;35.32;102660.38;5417459;26;20030;-66
2024/04/11 04:06:22;;;;;;;1.83;0.52;;;;;;;18.69;35.82;102659.22;5387526;26;19996;-66
2024/04/11 04:08:49;;;;;;;9.88;0.77;;;;;;;18.70;35.69;102666.38;5416992;26;20015;-66
2024/04/11 04:11:15;;;;;;;3.13;1.30;;;;;;;18.70;35.07;102665.53;5387434;26;20035;-66
2024/04/11 04:13:41;;;;;;;0.88;0.47;;;;;;;18.72;35.66;102666.25;5417161;26;19996;-66
2024/04/11 04:16:11;;;;;;;1.70;1.00;;;;;;;18.72;35.61;102672.53;5447184;26;20014;-66
2024/04/11 04:18:47;;;;;;;6.00;2.20;;;;;;;18.72;35.72;102674.38;5417108;26;20447;-66
2024/04/11 04:21:14;;;;;;;3.08;0.95;;;;;;;18.72;35.57;102675.25;5446925;26;20065;-66
2024/04/11 04:23:42;;;;;;;7.35;0.70;;;;;;;18.73;35.59;102665.25;5416852;26;20340;-66
2024/04/11 04:26:08;;;;;;;2.35;0.60;;;;;;;18.72;35.25;102675.25;5447124;26;20003;-66
2024/04/11 04:28:38;;;;;;;2.25;1.05;;;;;;;18.74;36.05;102669.66;5446675;26;20010;-66
2024/04/11 04:31:22;;;;;;;7.40;1.95;;;;;;;18.74;35.59;102667.81;5416919;26;20010;-66
2024/04/11 04:33:53;;;;;;;3.70;0.90;;;;;;;18.73;35.39;102668.84;5418756;26;20088;-66
2024/04/11 04:36:28;;;;;;;5.55;1.45;;;;;;;18.72;35.91;102661.66;5417140;26;20010;-66
2024/04/11 04:38:56;;;;;;;1.75;0.73;;;;;;;18.73;35.73;102670.69;5416762;26;20035;-66
2024/04/11 04:41:29;;;;;;;3.65;0.55;;;;;;;18.72;35.42;102669.81;5387451;26;20011;-66
2024/04/11 04:43:57;;;;;;;10.00;1.33;;;;;;;18.71;35.86;102668.09;5386437;26;20023;-67
2024/04/11 04:46:24;;;;;;;5.22;0.90;;;;;;;18.75;35.80;102674.97;5386804;26;19995;-66
2024/04/11 04:48:50;;;;;;;5.30;0.98;;;;;;;18.74;35.99;102678.69;5416470;26;20439;-66
2024/04/11 04:51:18;;;;;;;1.70;0.50;;;;;;;18.71;36.02;102673.50;5418533;26;20010;-66
2024/04/11 04:53:45;;;;;;;2.08;1.00;;;;;;;18.74;35.33;102672.38;5417665;26;20455;-66
2024/04/11 04:56:12;;;;;;;4.47;0.93;;;;;;;18.76;35.74;102675.84;5417172;26;20000;-66
2024/04/11 04:58:39;;;;;;;4.88;1.05;;;;;;;18.74;35.68;102667.81;5454139;26;20010;-66
2024/04/11 05:01:04;;;;;;;2.55;0.75;;;;;;;18.71;35.77;102665.38;5452527;26;19999;-66
2024/04/11 05:03:33;;;;;;;4.55;0.73;;;;;;;18.73;35.96;102659.81;5452964;26;20451;-66
2024/04/11 05:06:02;;;;;;;7.00;1.33;;;;;;;18.73;35.86;102671.53;5422992;26;20026;-66
2024/04/11 05:08:34;;;;;;;6.35;1.30;;;;;;;18.73;35.95;102674.25;5393575;26;20367;-66
2024/04/11 05:11:10;;;;;;;4.00;1.47;;;;;;;18.72;36.07;102674.38;5422941;26;20002;-66
2024/04/11 05:13:39;;;;;;;6.05;0.60;;;;;;;18.70;35.56;102677.25;5395035;26;20256;-66
2024/04/11 05:16:08;;;;;;;6.60;2.10;;;;;;;18.75;36.16;102682.25;5386438;26;19995;-66
2024/04/11 05:18:38;;;;;;;2.90;0.80;;;;;;;18.75;36.11;102674.97;5386468;26;19999;-66
2024/04/11 05:21:07;;;;;;;2.47;0.73;;;;;;;18.76;35.96;102671.25;5357362;26;20143;-65
2024/04/11 05:23:34;;;;;;;5.78;1.02;;;;;;;18.79;36.12;102668.25;5357502;26;20014;-66
2024/04/11 05:26:07;;;;;;;4.35;0.65;;;;;;;18.78;35.41;102669.28;5401376;26;19999;-66
2024/04/11 05:28:36;;;;;;;5.15;0.82;;;;;;;18.79;35.73;102664.72;5423956;26;19995;-66
2024/04/11 05:31:05;;;;;;;6.75;0.90;;;;;;;18.80;35.63;102670.00;5363053;26;20002;-66
2024/04/11 05:33:38;;;;;;;0.75;0.50;;;;;;;18.81;36.40;102671.72;5421752;26;20071;-66
2024/04/11 05:36:06;;;;;;;;;;;;;;;18.82;36.02;102675.25;5393292;26;20015;-66
2024/04/11 05:38:37;;;;;;;2.38;0.77;;;;;;;18.83;35.80;102672.44;5422533;26;19925;-66
2024/04/11 05:41:09;;;;;;;5.82;0.77;;;;;;;18.87;36.18;102673.84;5362968;26;20002;-69
2024/04/11 05:43:35;;;;;;;3.05;1.02;;;;;;;18.92;36.34;102684.31;5451328;26;20011;-66
2024/04/11 05:46:02;;;;;;;3.35;0.82;;;;;;;18.93;35.57;102684.16;5453459;26;19999;-66
2024/04/11 05:48:28;;;;;;;1.20;0.52;;;;;;;18.95;35.90;102681.34;5453095;26;20511;-65
2024/04/11 05:50:54;;;;;;;7.32;0.68;;;;;;;19.01;36.57;102687.06;5421633;26;20014;-63
2024/04/11 05:53:20;;;;;;;4.38;0.90;;;;;;;19.02;36.34;102688.78;5421332;26;20035;-63
2024/04/11 05:55:46;;;;;;;4.85;0.80;;;;;;;19.04;35.98;102678.63;5362939;26;20010;-64
2024/04/11 05:58:12;;;;;;;4.25;0.70;;;;;;;19.05;36.17;102683.06;5452979;26;19999;-66
2024/04/11 06:00:39;;;;;;;4.28;0.80;;;;;;;19.08;36.45;102682.81;5441799;26;20438;-65
2024/04/11 06:03:08;;;;;;;3.15;0.60;;;;;;;19.11;36.13;102682.53;5365014;26;20456;-65
2024/04/11 06:05:39;;;;;;;7.38;1.30;;;;;;;19.15;36.11;102689.38;5413503;26;20443;-65
2024/04/11 06:08:08;;;;;;;3.15;0.73;;;;;;;19.19;36.14;102690.84;5392016;26;20362;-65
2024/04/11 06:10:37;;;;;;;5.82;0.90;;;;;;;19.19;36.59;102688.13;5392130;26;20013;-65
2024/04/11 06:13:02;;;;;;;5.22;0.73;;;;;;;19.25;36.69;102699.41;5451331;26;20426;-65
2024/04/11 06:15:29;;;;;;;6.25;0.82;;;;;;;19.27;35.99;102701.00;5424922;26;20003;-65
2024/04/11 06:17:54;;;;;;;5.13;0.70;;;;;;;19.27;36.35;102708.28;5456327;26;20447;-65
2024/04/11 06:20:24;;;;;;;4.40;0.90;;;;;;;19.27;36.31;102713.72;5424766;26;20017;-65
2024/04/11 06:22:52;;;;;;;3.95;0.65;;;;;;;19.29;36.34;102711.75;5454829;26;20069;-65
2024/04/11 06:25:21;;;;;;;4.75;0.95;;;;;;;19.35;36.41;102711.16;5454885;26;19998;-65
2024/04/11 06:27:48;;;;;;;2.40;1.10;;;;;;;19.41;36.57;102707.91;5395174;26;20442;-65
2024/04/11 06:30:14;;;;;;;5.35;0.85;;;;;;;19.46;36.28;102714.66;5424464;26;20017;-65
2024/04/11 06:32:41;;;;;;;6.88;0.70;;;;;;;19.51;36.41;102719.69;5425015;26;19999;-65
2024/04/11 06:35:08;;;;;;;5.45;0.73;;;;;;;19.54;36.59;102716.69;5394430;26;20346;-65
2024/04/11 06:37:35;;;;;;;8.57;0.98;;;;;;;19.65;36.55;102724.72;5424861;26;19995;-65
2024/04/11 06:40:11;;;;;;;5.00;0.73;;;;;;;19.70;36.90;102731.44;5456038;26;20035;-65
2024/04/11 06:42:46;;;;;;;7.72;1.00;;;;;;;19.72;36.20;102739.44;5454357;26;20006;-65
2024/04/11 06:45:23;;;;;;;5.53;0.85;;;;;;;19.75;36.97;102731.00;5396233;26;20017;-65
2024/04/11 06:47:49;;;;;;;6.30;1.00;;;;;;;19.76;36.49;102733.56;5425509;26;20003;-65
2024/04/11 06:50:15;;;;;;;3.13;1.13;;;;;;;19.84;36.36;102743.75;5395067;26;20074;-65
2024/04/11 06:52:42;;;;;;;3.00;0.70;;;;;;;19.91;37.03;102744.03;5455990;26;20453;-66
2024/04/11 06:55:14;;;;;;;6.38;1.15;;;;;;;19.94;36.73;102749.19;5454097;26;20014;-65
2024/04/11 06:57:44;;;;;;;4.47;1.08;;;;;;;19.96;36.24;102758.91;5425420;26;20447;-65
2024/04/11 07:00:25;;;;;;;10.32;1.00;;;;;;;20.02;37.31;102771.94;5381564;26;20039;-65
2024/04/11 07:02:54;;;;;;;10.13;0.98;;;;;;;20.05;36.99;102766.22;5388626;26;20024;-65
2024/04/11 07:05:23;;;;;;;2.75;0.63;;;;;;;20.08;37.13;102768.66;5388960;26;20072;-65
2024/04/11 07:07:54;;;;;;;2.90;1.45;;;;;;;20.10;37.13;102773.97;5408261;26;20023;-65
2024/04/11 07:10:26;;;;;;;6.60;0.80;;;;;;;20.12;36.68;102771.97;5395300;26;20002;-65
2024/04/11 07:12:59;;;;;;;1.73;0.73;;;;;;;20.13;37.14;102769.09;5394937;26;20013;-65
2024/04/11 07:15:29;;;;;;;2.08;0.52;;;;;;;20.16;37.45;102767.94;5425355;26;20269;-65
2024/04/11 07:17:57;;;;;;;7.80;2.03;;;;;;;20.21;37.13;102762.94;5424628;26;20019;-65
2024/04/11 07:20:30;;;;;;;6.43;0.80;;;;;;;20.35;37.02;102761.66;5423816;26;19999;-65
2024/04/11 07:22:58;;;;;;;6.10;1.17;;;;;;;20.54;37.00;102758.91;5455676;26;20291;-65
2024/04/11 07:25:26;;;;;;;3.17;0.90;;;;;;;20.67;36.79;102763.03;5422870;26;20068;-66
2024/04/11 07:27:55;;;;;;;4.57;0.93;;;;;;;20.76;37.16;102761.28;5423587;26;20011;-65
2024/04/11 07:30:23;;;;;;;5.22;2.03;;;;;;;20.82;36.77;102766.13;5423809;26;20002;-65
2024/04/11 07:32:53;;;;;;;6.40;0.70;;;;;;;20.92;36.64;102775.13;5453670;26;20023;-66
2024/04/11 07:35:18;;;;;;;3.85;1.02;;;;;;;21.07;36.65;102773.69;5424734;26;19999;-67
2024/04/11 07:37:44;;;;;;;6.32;0.90;;;;;;;21.19;36.99;102769.72;5458762;26;20006;-65
2024/04/11 07:40:28;;;;;;;3.53;1.08;;;;;;;21.29;36.83;102762.38;5426731;26;20010;-72
2024/04/11 07:42:55;;;;;;;5.82;1.10;;;;;;;21.42;36.82;102765.59;5431430;26;19999;-65
2024/04/11 07:45:30;;;;;;;3.45;0.93;;;;;;;21.42;36.87;102765.59;5423643;26;20389;-65
2024/04/11 07:47:58;;;;;;;5.88;0.80;;;;;;;21.40;37.02;102764.91;5393758;26;19995;-65
2024/04/11 07:50:26;;;;;;;4.68;0.85;;;;;;;21.37;37.06;102762.47;5423390;26;20338;-65
2024/04/11 07:52:52;;;;;;;3.63;0.80;;;;;;;21.37;37.02;102775.25;5453283;26;20079;-66
2024/04/11 07:55:19;;;;;;;4.13;1.48;;;;;;;21.37;37.25;102772.50;5453287;26;19999;-65
2024/04/11 07:57:46;;;;;;;3.42;1.58;;;;;;;21.38;37.08;102782.41;5453231;26;19998;-65
2024/04/11 08:00:20;;;;;;;6.97;0.70;;;;;;;21.40;37.06;102778.53;5424259;26;20007;-65
2024/04/11 08:02:49;;;;;;;5.82;0.77;;;;;;;21.46;37.42;102779.78;5395651;26;20010;-64
2024/04/11 08:05:15;;;;;;;3.83;0.82;;;;;;;21.48;36.98;102781.34;5423320;26;19999;-65
2024/04/11 08:07:42;;;;;;;5.05;0.60;;;;;;;21.48;37.11;102791.41;5393603;26;20009;-65
2024/04/11 08:10:09;;;;;;;3.00;0.85;;;;;;;21.50;36.95;102788.53;5455195;26;20091;-64
2024/04/11 08:12:35;;;;;;;8.70;1.30;;;;;;;21.51;37.21;102784.78;5423148;26;20014;-64
2024/04/11 08:15:02;;;;;;;9.05;1.80;;;;;;;21.52;37.04;102792.81;5393532;26;20003;-64
2024/04/11 08:17:29;;;;;;;2.33;1.20;;;;;;;21.56;37.11;102804.25;5454621;26;20075;-64
2024/04/11 08:19:54;;;;;;;2.83;0.80;;;;;;;21.56;37.30;102796.06;5364598;26;20034;-64
2024/04/11 08:22:22;;;;;;;5.00;1.13;;;;;;;21.56;36.93;102798.81;5453303;26;20014;-64
2024/04/11 08:24:49;;;;;;;5.05;1.00;;;;;;;21.53;37.06;102788.19;5453130;26;20006;-66
2024/04/11 08:27:15;;;;;;;5.28;0.80;;;;;;;21.51;37.21;102798.41;5454729;26;19998;-64
2024/04/11 08:29:41;;;;;;;5.70;0.88;;;;;;;21.47;37.34;102801.44;5423038;26;20003;-64
2024/04/11 08:32:06;;;;;;;1.83;0.77;;;;;;;21.45;37.18;102802.59;5422942;26;20058;-64
2024/04/11 08:34:31;;;;;;;14.48;1.35;;;;;;;21.42;37.56;102802.91;5454315;26;19999;-64
2024/04/11 08:36:58;;;;;;;4.55;0.70;;;;;;;21.43;37.37;102797.31;5421209;26;20022;-64
2024/04/11 08:39:23;;;;;;;4.03;1.00;;;;;;;21.45;37.50;102808.91;5454629;26;20018;-65
2024/04/11 08:41:51;;;;;;;8.30;1.20;;;;;;;21.47;37.53;102804.16;5422924;26;20010;-64
2024/04/11 08:44:18;;;;;;;2.50;0.90;;;;;;;21.51;37.85;102814.78;5454512;26;20002;-64
2024/04/11 08:46:43;;;;;;;6.53;0.70;;;;;;;21.50;37.25;102827.53;5392798;26;20070;-64
2024/04/11 08:49:10;;;;;;;7.53;0.75;;;;;;;21.50;37.58;102827.53;5422626;26;19995;-64
2024/04/11 08:51:36;;;;;;;1.75;0.82;;;;;;;21.52;37.81;102841.03;5422298;26;19999;-64
2024/04/11 08:54:03;;;;;;;4.03;0.80;;;;;;;21.49;37.60;102836.75;5422053;26;20026;-64
2024/04/11 08:56:29;;;;;;;5.47;0.80;;;;;;;21.53;37.97;102837.28;5421970;26;19994;-64
2024/04/11 08:58:55;;;;;;;6.07;1.15;;;;;;;21.52;37.91;102841.91;5422707;26;20017;-64
2024/04/11 09:01:20;;;;;;;3.95;0.82;;;;;;;21.50;37.82;102848.53;5422440;26;20009;-64
2024/04/11 09:03:49;;;;;;;2.90;1.10;;;;;;;21.50;37.97;102843.06;5422406;26;20454;-66
2024/04/11 09:06:28;;;;;;;2.47;1.25;;;;;;;21.48;37.87;102844.06;5452060;26;20006;-64
2024/04/11 09:08:55;;;;;;;5.57;0.90;;;;;;;21.50;37.75;102845.81;5423922;26;20335;-64
2024/04/11 09:11:23;;;;;;;3.10;0.90;;;;;;;21.55;37.81;102851.66;5421958;26;19995;-64
2024/04/11 09:13:49;;;;;;;1.95;0.75;;;;;;;21.60;38.00;102850.19;5452520;26;20043;-64
2024/04/11 09:16:21;;;;;;;2.30;0.77;;;;;;;21.65;37.78;102856.03;5454212;26;20048;-64
2024/04/11 09:18:48;;;;;;;4.47;0.90;;;;;;;21.71;37.81;102862.75;5423268;26;20010;-64
2024/04/11 09:21:14;;;;;;;2.67;0.88;;;;;;;21.76;37.69;102849.50;5451907;26;19994;-64
2024/04/11 09:23:47;;;;;;;3.28;1.05;;;;;;;21.84;37.84;102857.78;5421966;26;20013;-64
2024/04/11 09:26:17;;;;;;;6.20;1.00;;;;;;;21.84;37.62;102858.66;5421844;26;20454;-64
2024/04/11 09:28:43;;;;;;;4.35;1.05;;;;;;;21.89;37.83;102866.41;5453521;26;19995;-64
2024/04/11 09:31:09;;;;;;;3.63;0.82;;;;;;;21.94;37.51;102872.28;5421774;26;20002;-65
2024/04/11 09:33:39;;;;;;;6.30;0.70;;;;;;;21.96;37.72;102864.81;5421628;26;19994;-65
2024/04/11 09:36:11;;;;;;;2.60;0.80;;;;;;;21.98;37.63;102860.03;5453434;26;20003;-64
2024/04/11 09:38:36;;;;;;;1.45;0.60;;;;;;;22.05;37.78;102866.63;5391921;26;20463;-65
2024/04/11 09:41:04;;;;;;;5.90;1.33;;;;;;;22.10;37.68;102856.09;5392240;26;20015;-65
2024/04/11 09:43:37;;;;;;;4.10;0.73;;;;;;;22.13;37.74;102861.22;5451770;26;20011;-65
2024/04/11 09:46:06;;;;;;;3.53;0.85;;;;;;;22.17;37.83;102857.16;5422236;26;19995;-65
2024/04/11 09:48:38;;;;;;;3.08;0.80;;;;;;;22.25;37.65;102865.44;5452757;26;19995;-64
2024/04/11 09:51:10;;;;;;;6.07;0.88;;;;;;;22.37;37.80;102866.94;5363527;26;19998;-64
2024/04/11 09:53:36;;;;;;;1.35;0.88;;;;;;;22.47;37.77;102850.47;5453491;26;20011;-64
2024/04/11 09:56:05;;;;;;;5.40;0.70;;;;;;;22.53;37.87;102856.13;5421330;26;20006;-64
2024/04/11 09:58:38;;;;;;;3.78;1.15;;;;;;;22.61;37.72;102864.41;5422219;26;19999;-64
2024/04/11 10:01:30;;;;;;;1.90;0.73;;;;;;;22.68;37.59;102874.72;5422858;26;20007;-64
2024/04/11 10:04:05;;;;;;;3.08;1.02;;;;;;;22.68;37.98;102874.72;5423538;26;20011;-66
2024/04/11 10:06:35;;;;;;;3.83;0.75;;;;;;;22.67;37.74;102876.59;5421456;26;20075;-64
2024/04/11 10:09:30;;;;;;;2.42;0.73;;;;;;;22.71;37.70;102885.34;5422538;26;20035;-64
2024/04/11 10:12:01;;;;;;;4.25;1.00;;;;;;;22.74;38.06;102874.09;5448136;26;19995;-64
2024/04/11 10:14:30;;;;;;;7.90;2.40;;;;;;;22.75;38.24;102884.91;5453090;26;20330;-65
2024/04/11 10:17:01;;;;;;;5.82;0.88;;;;;;;22.79;37.67;102891.75;5421572;26;19999;-64
2024/04/11 10:19:31;;;;;;;1.55;0.80;;;;;;;22.79;37.56;102894.47;5421516;26;20011;-64
2024/04/11 10:22:07;;;;;;;7.47;1.33;;;;;;;22.81;38.04;102897.06;5452966;26;20002;-64
2024/04/11 10:24:36;;;;;;;5.60;1.52;;;;;;;22.83;37.89;102901.34;5450949;26;20014;-65
2024/04/11 10:27:10;;;;;;;3.17;1.20;;;;;;;22.78;38.28;102903.69;5422056;26;20035;-65
2024/04/11 10:29:46;;;;;;;3.75;0.88;;;;;;;22.76;38.44;102900.25;5416782;26;20312;-66
2024/04/11 10:32:26;;;;;;;2.75;0.90;;;;;;;22.77;38.44;102906.59;5423094;26;20068;-65
2024/04/11 10:34:56;;;;;;;2.40;0.52;;;;;;;22.80;38.27;102898.06;5450649;26;20048;-65
2024/04/11 10:37:25;;;;;;;5.57;0.75;;;;;;;22.89;38.38;102894.41;5421638;26;20027;-65
2024/04/11 10:39:58;;;;;;;3.53;1.23;;;;;;;23.01;38.43;102890.38;5391832;26;20338;-65
2024/04/11 10:42:36;;;;;;;5.35;1.33;;;;;;;23.10;37.81;102897.63;5420753;26;20063;-65
2024/04/11 10:45:10;;;;;;;2.33;0.80;;;;;;;23.14;38.25;102882.63;5423613;26;20008;-65
2024/04/11 10:47:38;;;;;;;3.30;1.05;;;;;;;23.23;37.83;102889.81;5391201;26;20027;-65
2024/04/11 10:50:09;;;;;;;0.88;0.60;;;;;;;23.29;38.28;102897.38;5420954;26;20039;-64
2024/04/11 10:52:39;;;;;;;5.25;1.15;;;;;;;23.39;38.23;102902.78;5421319;26;19998;-65
2024/04/11 10:55:12;;;;;;;6.55;1.08;;;;;;;23.51;37.93;102916.00;5420337;26;20006;-65
2024/04/11 10:57:44;;;;;;;4.93;0.82;;;;;;;23.49;38.07;102915.31;5449905;26;20338;-65
2024/04/11 11:00:11;;;;;;;4.60;0.80;;;;;;;23.48;38.14;102919.06;5450748;26;20003;-65
2024/04/11 11:02:42;;;;;;;4.95;1.00;;;;;;;23.50;38.44;102928.00;5423839;26;19999;-64
2024/04/11 11:05:08;;;;;;;4.55;0.73;;;;;;;23.54;38.40;102918.44;5424381;26;20002;-65
2024/04/11 11:07:38;;;;;;;0.73;0.60;;;;;;;23.61;37.99;102930.44;5423898;26;20017;-65
2024/04/11 11:10:11;;;;;;;1.23;0.55;;;;;;;23.61;37.98;102930.44;5425631;26;20003;-65
2024/04/11 11:12:37;;;;;;;4.70;1.00;;;;;;;23.62;38.20;102918.47;5423910;26;20011;-64
2024/04/11 11:15:03;;;;;;;5.97;0.70;;;;;;;23.65;38.43;102914.53;5364236;26;20440;-64
2024/04/11 11:17:31;;;;;;;3.00;0.80;;;;;;;23.66;38.17;102906.19;5388144;26;20003;-65
2024/04/11 11:19:58;;;;;;;5.25;1.00;;;;;;;23.68;37.81;102909.59;5450939;26;20399;-65
2024/04/11 11:22:33;;;;;;;4.90;1.67;;;;;;;23.85;38.00;102907.78;5394722;26;20003;-65
2024/04/11 11:25:00;;;;;;;6.25;1.38;;;;;;;24.00;37.70;102919.84;5423494;26;20014;-65
2024/04/11 11:27:28;;;;;;;4.85;1.25;;;;;;;24.16;37.94;102919.06;5423866;26;20089;-64
2024/04/11 11:29:56;;;;;;;2.97;1.10;;;;;;;24.28;37.83;102914.97;5424568;26;20022;-68